Time;durP1;ratioP1;P1;durP2;ratioP2;P2;SDS_P1;SDS_P2;PMS_P1;PMS_P2;Temp;Humidity;BMP_temperature;BMP_pressure;BME280_temperature;BME280_humidity;BME280_pressure;Samples;Min_cycle;Max_cycle;Signal;HPM_P1;HPM_P2
2022/10/28 00:02:17;;;;;;;10.60;6.07;;;14.90;99.90;;;;;;4881299;29;20071;-73
2022/10/28 00:04:43;;;;;;;12.02;5.57;;;14.80;99.90;;;;;;4882470;29;20071;-72
2022/10/28 00:07:08;;;;;;;9.02;5.53;;;14.70;99.90;;;;;;4881087;29;20049;-72
2022/10/28 00:09:34;;;;;;;11.02;6.25;;;14.70;99.90;;;;;;4882331;29;20052;-72
2022/10/28 00:12:00;;;;;;;9.43;6.07;;;14.70;99.90;;;;;;4881122;29;20052;-73
2022/10/28 00:14:26;;;;;;;9.80;6.00;;;14.60;99.90;;;;;;4880834;29;20140;-73
2022/10/28 00:16:52;;;;;;;10.93;6.40;;;14.60;99.90;;;;;;4881843;29;20053;-73
2022/10/28 00:19:18;;;;;;;8.90;6.05;;;14.50;99.90;;;;;;4865748;29;20052;-73
2022/10/28 00:21:44;;;;;;;8.95;5.90;;;14.50;99.90;;;;;;4880748;29;20060;-72
2022/10/28 00:24:12;;;;;;;8.98;5.70;;;14.50;99.90;;;;;;4882060;29;20049;-73
2022/10/28 00:26:43;;;;;;;8.20;5.63;;;14.50;99.90;;;;;;4880536;29;20081;-73
2022/10/28 00:29:14;;;;;;;7.80;5.82;;;14.50;99.90;;;;;;4881169;29;20577;-73
2022/10/28 00:31:41;;;;;;;9.82;6.00;;;14.40;99.90;;;;;;4882020;29;20056;-73
2022/10/28 00:34:10;;;;;;;12.40;6.32;;;14.40;99.90;;;;;;4880813;29;20049;-72
2022/10/28 00:36:38;;;;;;;11.23;6.20;;;14.40;99.90;;;;;;4881000;29;20088;-72
2022/10/28 00:39:14;;;;;;;9.48;6.07;;;14.40;99.90;;;;;;4880683;29;20471;-72
2022/10/28 00:41:42;;;;;;;8.73;6.10;;;14.40;99.90;;;;;;4880700;29;20493;-72
2022/10/28 00:44:48;;;;;;;10.90;6.07;;;14.40;99.90;;;;;;4881660;29;20080;-72
2022/10/28 00:47:42;;;;;;;9.55;5.90;;;14.40;99.90;;;;;;4864759;29;20081;-72
2022/10/28 00:50:31;;;;;;;10.85;6.72;;;14.40;99.90;;;;;;4880738;29;20096;-72
2022/10/28 00:53:19;;;;;;;11.65;7.50;;;14.40;99.90;;;;;;4880673;29;20170;-72
2022/10/28 00:55:46;;;;;;;10.18;6.72;;;14.50;99.90;;;;;;4881383;29;20045;-73
2022/10/28 00:58:14;;;;;;;8.32;6.55;;;14.40;99.90;;;;;;4881263;29;20065;-73
2022/10/28 01:00:40;;;;;;;11.88;7.22;;;14.50;99.90;;;;;;4880577;29;20055;-73
2022/10/28 01:03:07;;;;;;;13.13;7.57;;;14.50;99.90;;;;;;4881445;29;20148;-73
2022/10/28 01:05:35;;;;;;;14.05;7.28;;;14.50;99.90;;;;;;4880612;29;20049;-73
2022/10/28 01:08:03;;;;;;;11.32;7.30;;;14.60;99.90;;;;;;4881520;29;20052;-73
2022/10/28 01:10:40;;;;;;;9.73;7.40;;;14.60;99.90;;;;;;4895612;29;20076;-73
2022/10/28 01:13:20;;;;;;;11.15;7.13;;;14.60;99.90;;;;;;4880389;29;20072;-73
2022/10/28 01:15:54;;;;;;;11.20;6.85;;;14.70;99.90;;;;;;4879495;29;20060;-73
2022/10/28 01:18:36;;;;;;;10.50;6.70;;;14.70;99.90;;;;;;4879986;29;20057;-73
2022/10/28 01:21:13;;;;;;;11.25;7.30;;;14.70;99.90;;;;;;4881022;29;20048;-73
2022/10/28 01:23:48;;;;;;;12.45;7.43;;;14.70;99.90;;;;;;4880066;29;20041;-73
2022/10/28 01:26:25;;;;;;;9.68;6.85;;;14.70;99.90;;;;;;4880200;29;20094;-73
2022/10/28 01:28:51;;;;;;;9.55;6.35;;;14.70;99.90;;;;;;4881154;29;20080;-73
2022/10/28 01:31:48;;;;;;;11.73;6.88;;;14.70;99.90;;;;;;4879823;29;20080;-74
2022/10/28 01:34:59;;;;;;;12.90;7.65;;;14.80;99.90;;;;;;4880214;29;20052;-72
2022/10/28 01:37:31;;;;;;;10.55;7.40;;;14.70;99.90;;;;;;4880389;29;20112;-73
2022/10/28 01:40:12;;;;;;;11.70;7.57;;;14.80;99.90;;;;;;4880032;29;20363;-73
2022/10/28 01:42:48;;;;;;;11.88;7.30;;;14.80;99.90;;;;;;4880359;29;20367;-73
2022/10/28 01:45:29;;;;;;;8.30;6.45;;;14.70;99.90;;;;;;4879137;29;20105;-73
2022/10/28 01:48:15;;;;;;;12.27;7.15;;;14.70;99.90;;;;;;4894920;29;20049;-73
2022/10/28 01:50:56;;;;;;;13.70;7.57;;;14.70;99.90;;;;;;4881091;29;20045;-73
2022/10/28 01:53:29;;;;;;;11.38;7.38;;;14.70;99.90;;;;;;4880846;29;20049;-73
2022/10/28 01:55:57;;;;;;;;;;;14.60;99.90;;;;;;4881193;29;20041;-73
2022/10/28 01:58:29;;;;;;;16.02;7.72;;;14.60;99.90;;;;;;4879159;29;19924;-73
2022/10/28 02:00:56;;;;;;;10.70;6.88;;;14.50;99.90;;;;;;4880845;29;20150;-73
2022/10/28 02:03:22;;;;;;;13.02;7.57;;;14.50;99.90;;;;;;4880000;29;20045;-73
2022/10/28 02:05:51;;;;;;;16.27;8.85;;;14.50;99.90;;;;;;4880348;29;20052;-73
2022/10/28 02:08:53;;;;;;;10.32;7.47;;;14.50;99.90;;;;;;4880564;29;20057;-72
2022/10/28 02:11:37;;;;;;;12.43;8.43;;;14.40;99.90;;;;;;4879498;29;20097;-72
2022/10/28 02:14:35;;;;;;;14.20;9.00;;;14.30;99.90;;;;;;4880319;29;20196;-73
2022/10/28 02:17:13;;;;;;;11.90;7.63;;;14.40;99.90;;;;;;4878672;29;20091;-73
2022/10/28 02:19:48;;;;;;;13.43;8.40;;;14.30;99.90;;;;;;4864115;29;20363;-73
2022/10/28 02:22:33;;;;;;;13.45;7.63;;;14.30;99.90;;;;;;4879300;29;20080;-73
2022/10/28 02:25:12;;;;;;;10.98;7.30;;;14.30;99.90;;;;;;4879169;29;20083;-73
2022/10/28 02:27:43;;;;;;;12.55;8.52;;;14.30;99.90;;;;;;4879731;29;20037;-73
2022/10/28 02:30:44;;;;;;;13.75;7.85;;;14.20;99.90;;;;;;4879123;29;20056;-73
2022/10/28 02:33:16;;;;;;;14.50;8.82;;;14.30;99.90;;;;;;4880195;29;20456;-72
2022/10/28 02:36:04;;;;;;;11.80;8.02;;;14.20;99.90;;;;;;4879037;29;20143;-72
2022/10/28 02:38:41;;;;;;;14.00;7.90;;;14.20;99.90;;;;;;4879683;29;20040;-73
2022/10/28 02:41:22;;;;;;;11.88;8.48;;;14.10;99.90;;;;;;4879254;29;20377;-72
2022/10/28 02:43:57;;;;;;;12.35;7.97;;;14.10;99.90;;;;;;4894163;29;20051;-73
2022/10/28 02:46:27;;;;;;;12.52;8.38;;;14.10;99.90;;;;;;4877931;29;20435;-73
2022/10/28 02:49:15;;;;;;;17.42;8.98;;;14.00;99.90;;;;;;4879871;29;20084;-73
2022/10/28 02:51:52;;;;;;;13.48;8.27;;;14.00;99.90;;;;;;4879345;29;20053;-73
2022/10/28 02:54:26;;;;;;;12.27;8.55;;;14.00;99.90;;;;;;4878726;29;20084;-73
2022/10/28 02:57:04;;;;;;;13.52;8.07;;;13.90;99.90;;;;;;4878562;29;20061;-73
2022/10/28 02:59:30;;;;;;;12.98;8.27;;;14.00;99.90;;;;;;4863508;29;20206;-73
2022/10/28 03:01:56;;;;;;;12.88;8.27;;;13.90;99.90;;;;;;4879676;29;20124;-73
2022/10/28 03:04:21;;;;;;;12.98;8.60;;;13.90;99.90;;;;;;4878445;29;20566;-72
2022/10/28 03:06:47;;;;;;;13.48;8.43;;;13.80;99.90;;;;;;4879606;29;20132;-73
2022/10/28 03:09:13;;;;;;;13.00;8.60;;;13.80;99.90;;;;;;4878270;29;20052;-73
2022/10/28 03:11:39;;;;;;;10.77;7.32;;;13.80;99.90;;;;;;4878708;29;20045;-73
2022/10/28 03:14:04;;;;;;;11.05;7.55;;;13.80;99.90;;;;;;4879496;29;20049;-73
2022/10/28 03:16:30;;;;;;;15.10;8.30;;;13.70;99.90;;;;;;4881185;29;20056;-73
2022/10/28 03:18:56;;;;;;;14.60;7.78;;;13.70;99.90;;;;;;4883372;29;20136;-73
2022/10/28 03:21:21;;;;;;;10.43;7.35;;;13.70;99.90;;;;;;4882446;29;20442;-73
2022/10/28 03:23:47;;;;;;;13.77;8.82;;;13.70;99.90;;;;;;4883103;29;20084;-73
2022/10/28 03:26:13;;;;;;;12.38;7.68;;;13.60;99.90;;;;;;4882046;29;20117;-73
2022/10/28 03:28:38;;;;;;;12.00;8.07;;;13.60;99.90;;;;;;4883363;29;20044;-72
2022/10/28 03:31:04;;;;;;;12.80;7.20;;;13.70;99.90;;;;;;4882961;29;20056;-73
2022/10/28 03:33:30;;;;;;;11.05;7.68;;;13.60;99.90;;;;;;4883315;29;20109;-73
2022/10/28 03:35:56;;;;;;;11.00;7.25;;;13.60;99.90;;;;;;4866386;29;20073;-73
2022/10/28 03:38:22;;;;;;;11.95;7.50;;;13.60;99.90;;;;;;4881722;29;20053;-73
2022/10/28 03:40:48;;;;;;;12.68;7.82;;;13.60;99.90;;;;;;4866343;29;20554;-73
2022/10/28 03:43:15;;;;;;;12.30;7.57;;;13.60;99.90;;;;;;4883236;29;20413;-73
2022/10/28 03:45:41;;;;;;;10.70;7.60;;;13.60;99.90;;;;;;4882825;29;20037;-73
2022/10/28 03:48:06;;;;;;;13.65;7.75;;;13.60;99.90;;;;;;4881622;29;20052;-73
2022/10/28 03:50:32;;;;;;;10.45;7.70;;;13.60;99.90;;;;;;4881550;29;20537;-73
2022/10/28 03:52:58;;;;;;;14.30;8.13;;;13.50;99.90;;;;;;4866135;29;20385;-73
2022/10/28 03:55:24;;;;;;;10.80;7.95;;;13.50;99.90;;;;;;4865990;29;20045;-73
2022/10/28 03:57:51;;;;;;;16.02;8.35;;;13.60;99.90;;;;;;4881668;29;20061;-73
2022/10/28 04:00:17;;;;;;;11.13;7.32;;;13.60;99.90;;;;;;4881745;29;20144;-73
2022/10/28 04:02:48;;;;;;;10.77;7.28;;;13.50;99.90;;;;;;4882663;29;20048;-73
2022/10/28 04:05:14;;;;;;;10.82;6.80;;;13.50;99.90;;;;;;4882852;29;20044;-73
2022/10/28 04:07:39;;;;;;;11.23;7.45;;;13.50;99.90;;;;;;4882219;29;20045;-73
2022/10/28 04:10:05;;;;;;;13.10;8.48;;;13.50;99.90;;;;;;4882760;29;20088;-73
2022/10/28 04:12:31;;;;;;;9.63;7.13;;;13.60;99.90;;;;;;4881387;29;20098;-73
2022/10/28 04:14:57;;;;;;;10.23;7.28;;;13.60;99.90;;;;;;4882145;29;20458;-73
2022/10/28 04:17:22;;;;;;;12.77;8.20;;;13.60;99.90;;;;;;4880817;29;20053;-73
2022/10/28 04:19:48;;;;;;;12.10;7.82;;;13.30;99.90;;;;;;4881190;29;20080;-73
2022/10/28 04:22:14;;;;;;;11.00;8.05;;;13.60;99.90;;;;;;4882024;29;20045;-73
2022/10/28 04:24:40;;;;;;;11.32;7.75;;;13.60;99.90;;;;;;4881128;29;20073;-73
2022/10/28 04:27:05;;;;;;;14.48;8.65;;;13.60;99.90;;;;;;4881687;29;20102;-73
2022/10/28 04:29:31;;;;;;;12.23;7.10;;;13.60;99.90;;;;;;4896484;29;20045;-73
2022/10/28 04:31:58;;;;;;;14.10;8.35;;;13.60;99.90;;;;;;4881246;29;20041;-73
2022/10/28 04:34:24;;;;;;;13.57;7.72;;;13.50;99.90;;;;;;4880985;29;20113;-73
2022/10/28 04:36:49;;;;;;;10.00;6.97;;;13.60;99.90;;;;;;4880831;29;20049;-73
2022/10/28 04:39:15;;;;;;;11.20;8.18;;;13.50;99.90;;;;;;4882016;29;20033;-73
2022/10/28 04:41:41;;;;;;;12.20;6.95;;;13.50;99.90;;;;;;4865427;29;20052;-73
2022/10/28 04:44:07;;;;;;;13.50;8.02;;;13.50;99.90;;;;;;4882109;29;20041;-72
2022/10/28 04:46:32;;;;;;;10.50;7.50;;;13.50;99.90;;;;;;4881353;29;20393;-72
2022/10/28 04:48:58;;;;;;;12.20;8.13;;;13.50;99.90;;;;;;4865084;29;20041;-73
2022/10/28 04:51:24;;;;;;;15.20;8.52;;;13.50;99.90;;;;;;4880344;29;20045;-74
2022/10/28 04:53:49;;;;;;;17.52;10.40;;;13.50;99.90;;;;;;4880560;29;20049;-72
2022/10/28 04:56:15;;;;;;;17.88;8.70;;;13.50;99.90;;;;;;4881857;29;20043;-71
2022/10/28 04:58:41;;;;;;;14.68;8.85;;;13.50;99.90;;;;;;4880860;29;20584;-71
2022/10/28 05:01:08;;;;;;;11.52;7.72;;;13.50;99.90;;;;;;4880620;29;20067;-71
2022/10/28 05:03:34;;;;;;;14.18;8.50;;;13.50;99.90;;;;;;4880712;29;20118;-71
2022/10/28 05:05:59;;;;;;;10.80;8.23;;;13.50;99.90;;;;;;4881270;29;20450;-71
2022/10/28 05:08:25;;;;;;;12.48;8.50;;;13.50;99.90;;;;;;4880285;29;20087;-71
2022/10/28 05:10:51;;;;;;;14.77;8.63;;;13.60;99.90;;;;;;4881620;29;20041;-72
2022/10/28 05:13:17;;;;;;;13.20;9.30;;;13.60;99.90;;;;;;4880140;29;20045;-72
2022/10/28 05:15:43;;;;;;;13.63;8.18;;;13.60;99.90;;;;;;4879716;29;20116;-71
2022/10/28 05:18:09;;;;;;;13.10;8.55;;;13.60;99.90;;;;;;4881229;29;20544;-71
2022/10/28 05:20:35;;;;;;;17.73;8.85;;;13.60;99.90;;;;;;4880249;29;20092;-72
2022/10/28 05:23:01;;;;;;;12.10;8.45;;;13.60;99.90;;;;;;4880934;29;20116;-72
2022/10/28 05:25:26;;;;;;;15.95;8.40;;;13.60;99.90;;;;;;4880979;29;20048;-72
2022/10/28 05:27:52;;;;;;;15.85;8.32;;;13.60;99.90;;;;;;4879880;29;20052;-72
2022/10/28 05:30:18;;;;;;;15.73;8.20;;;13.70;99.90;;;;;;4880085;29;20056;-72
2022/10/28 05:32:44;;;;;;;13.30;7.65;;;13.70;99.90;;;;;;4881070;29;20049;-72
2022/10/28 05:35:10;;;;;;;11.13;7.32;;;13.70;99.90;;;;;;4879843;29;20386;-72
2022/10/28 05:37:36;;;;;;;14.32;8.02;;;13.70;99.90;;;;;;4895152;29;20414;-71
2022/10/28 05:40:03;;;;;;;12.10;7.30;;;13.70;99.90;;;;;;4879178;29;20197;-72
2022/10/28 05:42:29;;;;;;;13.75;7.53;;;13.70;99.90;;;;;;4879699;29;20385;-71
2022/10/28 05:44:54;;;;;;;11.88;7.85;;;13.70;99.90;;;;;;4879778;29;20054;-72
2022/10/28 05:47:20;;;;;;;13.23;8.02;;;13.70;99.90;;;;;;4880258;29;20128;-72
2022/10/28 05:49:46;;;;;;;15.32;7.65;;;13.70;99.90;;;;;;4879631;29;20054;-72
2022/10/28 05:52:11;;;;;;;11.63;7.55;;;13.70;99.90;;;;;;4879347;29;20379;-70
2022/10/28 05:54:37;;;;;;;11.95;7.55;;;13.70;99.90;;;;;;4848867;29;20092;-71
2022/10/28 05:57:03;;;;;;;13.35;7.47;;;13.70;99.90;;;;;;4879917;29;20462;-71
2022/10/28 05:59:28;;;;;;;12.07;5.50;;;13.70;99.90;;;;;;4879339;29;20443;-71
2022/10/28 06:01:54;;;;;;;13.40;7.10;;;13.70;99.90;;;;;;4880468;29;20072;-71
2022/10/28 06:04:20;;;;;;;16.88;8.52;;;13.70;99.90;;;;;;4879199;29;20075;-71
2022/10/28 06:06:45;;;;;;;14.80;8.25;;;13.70;99.90;;;;;;4878847;29;20056;-72
2022/10/28 06:09:11;;;;;;;12.23;8.15;;;13.70;99.90;;;;;;4880804;29;20105;-72
2022/10/28 06:11:37;;;;;;;11.98;8.13;;;13.70;99.90;;;;;;4880224;29;20127;-72
2022/10/28 06:14:03;;;;;;;15.20;7.72;;;13.70;99.90;;;;;;4880104;29;20136;-72
2022/10/28 06:16:28;;;;;;;14.60;6.60;;;13.70;99.90;;;;;;4879248;29;20060;-71
2022/10/28 06:18:54;;;;;;;12.60;7.13;;;13.60;99.90;;;;;;4879162;29;20057;-71
2022/10/28 06:21:20;;;;;;;15.20;7.82;;;13.60;99.90;;;;;;4879770;29;20045;-72
2022/10/28 06:23:47;;;;;;;11.85;7.18;;;13.60;99.90;;;;;;4880128;29;20214;-71
2022/10/28 06:26:13;;;;;;;12.32;7.35;;;13.70;99.90;;;;;;4863526;29;20057;-72
2022/10/28 06:28:38;;;;;;;12.00;7.20;;;13.60;99.90;;;;;;4878918;29;20100;-72
2022/10/28 06:31:06;;;;;;;11.00;7.57;;;13.60;99.90;;;;;;4879800;29;20055;-72
2022/10/28 06:33:32;;;;;;;15.02;7.00;;;13.60;99.90;;;;;;4848230;29;20490;-72
2022/10/28 06:35:58;;;;;;;10.25;7.10;;;13.60;99.90;;;;;;4878672;29;20068;-71
2022/10/28 06:38:25;;;;;;;13.20;7.38;;;13.60;99.90;;;;;;4863164;29;20052;-72
2022/10/28 06:40:51;;;;;;;11.38;6.10;;;13.60;99.90;;;;;;4878614;29;20109;-72
2022/10/28 06:43:17;;;;;;;11.15;6.68;;;13.60;99.90;;;;;;4878889;29;20057;-72
2022/10/28 06:45:45;;;;;;;10.50;6.68;;;13.60;99.90;;;;;;4878131;29;20510;-71
2022/10/28 06:48:12;;;;;;;10.63;6.55;;;13.60;99.90;;;;;;4863160;29;20056;-72
2022/10/28 06:50:37;;;;;;;9.50;6.75;;;13.60;99.90;;;;;;4878368;29;20136;-72
2022/10/28 06:53:03;;;;;;;12.82;7.50;;;13.60;99.90;;;;;;4863348;29;20080;-72
2022/10/28 06:55:29;;;;;;;9.18;6.82;;;13.60;99.90;;;;;;4863207;29;20135;-72
2022/10/28 06:57:59;;;;;;;13.73;8.65;;;13.60;99.90;;;;;;4878405;29;20107;-72
2022/10/28 07:00:25;;;;;;;11.55;7.57;;;13.70;99.90;;;;;;4878643;29;20049;-71
2022/10/28 07:02:54;;;;;;;11.43;7.55;;;13.70;99.90;;;;;;4862739;29;20128;-72
2022/10/28 07:05:21;;;;;;;11.90;7.05;;;13.70;99.90;;;;;;4878671;29;20052;-72
2022/10/28 07:07:47;;;;;;;11.95;7.25;;;13.70;99.90;;;;;;4878317;29;20053;-71
2022/10/28 07:10:12;;;;;;;15.57;7.30;;;13.70;99.90;;;;;;4879507;29;20049;-72
2022/10/28 07:12:38;;;;;;;11.38;7.13;;;13.80;99.90;;;;;;4878256;29;20080;-72
2022/10/28 07:15:04;;;;;;;12.43;6.88;;;13.80;99.90;;;;;;4862905;29;20072;-73
2022/10/28 07:17:30;;;;;;;15.20;7.20;;;13.80;99.90;;;;;;4878783;29;20057;-73
2022/10/28 07:19:56;;;;;;;15.50;7.60;;;13.80;99.90;;;;;;4879735;29;20056;-73
2022/10/28 07:22:21;;;;;;;11.75;7.35;;;13.80;99.90;;;;;;4878471;29;20443;-73
2022/10/28 07:24:47;;;;;;;14.52;8.30;;;13.90;99.90;;;;;;4879330;29;20513;-73
2022/10/28 07:27:13;;;;;;;13.38;7.50;;;13.90;99.90;;;;;;4878141;29;20132;-73
2022/10/28 07:29:39;;;;;;;13.18;7.38;;;13.90;99.90;;;;;;4879328;29;20530;-73
2022/10/28 07:32:05;;;;;;;9.00;6.70;;;13.90;99.90;;;;;;4878010;29;20053;-73
2022/10/28 07:34:30;;;;;;;12.63;7.05;;;14.00;99.90;;;;;;4878075;29;20049;-73
2022/10/28 07:36:56;;;;;;;9.93;6.47;;;14.00;99.90;;;;;;4878218;29;20049;-73
2022/10/28 07:39:22;;;;;;;10.63;7.10;;;14.00;99.90;;;;;;4878370;29;20509;-73
2022/10/28 07:41:48;;;;;;;8.80;6.60;;;14.10;99.90;;;;;;4862778;29;20071;-73
2022/10/28 07:44:13;;;;;;;12.90;6.55;;;14.10;99.90;;;;;;4862774;29;20092;-73
2022/10/28 07:46:39;;;;;;;13.95;6.82;;;14.10;99.90;;;;;;4877189;29;20042;-73
2022/10/28 07:49:05;;;;;;;10.57;6.10;;;14.10;99.90;;;;;;4879454;29;20056;-73
2022/10/28 07:51:31;;;;;;;12.30;6.45;;;14.20;99.90;;;;;;4878138;29;20051;-73
2022/10/28 07:53:57;;;;;;;12.40;6.20;;;14.20;99.90;;;;;;4879261;29;20063;-72
2022/10/28 07:56:23;;;;;;;11.40;5.57;;;14.30;99.90;;;;;;4862920;29;20144;-72
2022/10/28 07:58:49;;;;;;;12.40;6.35;;;14.30;99.90;;;;;;4878163;29;20486;-73
2022/10/28 08:01:18;;;;;;;11.23;6.22;;;14.40;99.90;;;;;;4878201;29;20048;-73
2022/10/28 08:03:46;;;;;;;9.77;5.75;;;14.40;99.90;;;;;;4881792;29;20056;-72
2022/10/28 08:06:17;;;;;;;12.25;7.43;;;14.40;99.90;;;;;;4881622;29;20060;-71
2022/10/28 08:08:44;;;;;;;12.65;7.22;;;14.50;99.90;;;;;;4882530;29;20057;-71
2022/10/28 08:11:19;;;;;;;11.57;6.57;;;14.50;99.90;;;;;;4882435;29;20057;-71
2022/10/28 08:13:45;;;;;;;13.48;6.72;;;14.60;99.90;;;;;;4881335;29;20052;-72
2022/10/28 08:16:11;;;;;;;13.25;6.82;;;14.60;99.90;;;;;;4881920;29;20146;-73
2022/10/28 08:18:37;;;;;;;12.20;6.57;;;14.60;99.90;;;;;;4881244;29;20057;-73
2022/10/28 08:21:05;;;;;;;10.43;6.88;;;14.70;99.90;;;;;;4882336;29;20071;-72
2022/10/28 08:23:31;;;;;;;14.52;7.38;;;14.70;99.90;;;;;;4882289;29;20135;-73
2022/10/28 08:25:57;;;;;;;11.70;6.72;;;14.80;99.90;;;;;;4882232;29;20128;-72
2022/10/28 08:28:23;;;;;;;12.95;6.57;;;14.80;99.90;;;;;;4881106;29;20151;-72
2022/10/28 08:30:49;;;;;;;10.60;5.53;;;14.90;99.90;;;;;;4882182;29;20045;-71
2022/10/28 08:33:16;;;;;;;13.07;6.13;;;14.90;99.90;;;;;;4882122;29;20075;-71
2022/10/28 08:35:41;;;;;;;12.13;5.45;;;14.90;99.90;;;;;;4881358;29;20101;-72
2022/10/28 08:38:08;;;;;;;12.77;5.53;;;15.00;99.90;;;;;;4881915;29;20161;-71
2022/10/28 08:40:56;;;;;;;10.77;5.95;;;15.00;99.90;;;;;;4881011;29;20056;-71
2022/10/28 08:43:40;;;;;;;11.32;6.07;;;15.00;99.90;;;;;;4882087;29;20094;-72
2022/10/28 08:46:14;;;;;;;14.00;6.60;;;15.10;99.90;;;;;;4880874;29;20045;-73
2022/10/28 08:48:41;;;;;;;12.85;6.50;;;15.20;99.90;;;;;;4881890;29;20045;-72
2022/10/28 08:51:16;;;;;;;13.25;7.22;;;15.10;99.90;;;;;;4881758;29;20053;-75
2022/10/28 08:53:56;;;;;;;12.93;6.68;;;15.10;99.90;;;;;;4880669;29;20526;-76
2022/10/28 08:56:44;;;;;;;14.20;7.60;;;15.20;99.90;;;;;;4881528;29;20096;-76
2022/10/28 08:59:15;;;;;;;12.82;6.72;;;15.20;99.90;;;;;;4863278;29;20045;-75
2022/10/28 09:01:57;;;;;;;13.95;7.10;;;15.30;99.90;;;;;;4880959;29;20049;-76
2022/10/28 09:04:42;;;;;;;12.10;6.65;;;15.30;99.90;;;;;;4879954;29;20059;-75
2022/10/28 09:07:16;;;;;;;12.00;6.78;;;15.40;99.90;;;;;;4879121;29;20070;-75
2022/10/28 09:09:43;;;;;;;12.15;7.35;;;15.40;99.90;;;;;;4880202;29;20125;-75
2022/10/28 09:12:23;;;;;;;14.38;6.85;;;15.50;99.90;;;;;;4849452;29;20052;-75
2022/10/28 09:15:17;;;;;;;14.10;7.00;;;15.50;99.90;;;;;;4877043;29;20045;-74
2022/10/28 09:18:03;;;;;;;13.32;6.88;;;15.60;99.90;;;;;;4880437;29;20129;-74
2022/10/28 09:20:52;;;;;;;11.93;6.90;;;15.60;99.90;;;;;;4878176;29;20053;-75
2022/10/28 09:23:32;;;;;;;11.57;6.43;;;15.70;99.90;;;;;;4879136;29;20052;-74
2022/10/28 09:26:19;;;;;;;11.20;5.65;;;15.80;99.90;;;;;;4876247;29;20052;-73
2022/10/28 09:28:55;;;;;;;12.95;5.65;;;15.80;99.90;;;;;;4879380;29;20101;-73
2022/10/28 09:31:36;;;;;;;9.13;4.88;;;15.90;99.90;;;;;;4874990;29;20487;-72
2022/10/28 09:34:08;;;;;;;11.38;5.30;;;16.00;99.90;;;;;;4874696;29;20121;-72
2022/10/28 09:36:48;;;;;;;10.90;5.97;;;16.00;99.90;;;;;;4878640;29;20055;-72
2022/10/28 09:39:19;;;;;;;12.07;5.15;;;16.10;99.90;;;;;;4878347;29;20044;-72
2022/10/28 09:41:48;;;;;;;12.18;4.90;;;16.10;99.90;;;;;;4878289;29;20453;-73
2022/10/28 09:44:24;;;;;;;12.05;4.93;;;16.10;99.90;;;;;;4863901;29;20049;-72
2022/10/28 09:46:54;;;;;;;10.15;4.55;;;16.20;99.90;;;;;;4876998;29;20044;-72
2022/10/28 09:49:35;;;;;;;8.98;4.78;;;16.20;99.90;;;;;;4876154;29;20064;-73
2022/10/28 09:52:07;;;;;;;9.85;4.97;;;16.20;99.90;;;;;;4863411;29;20068;-72
2022/10/28 09:54:57;;;;;;;8.75;4.70;;;16.30;99.90;;;;;;4878995;29;20067;-72
2022/10/28 09:57:29;;;;;;;11.55;5.20;;;16.30;99.90;;;;;;4876978;29;20053;-72
2022/10/28 09:59:55;;;;;;;11.40;4.70;;;16.30;99.90;;;;;;4878324;29;20081;-72
2022/10/28 10:02:29;;;;;;;9.05;4.30;;;16.40;99.90;;;;;;4878895;29;20084;-72
2022/10/28 10:04:56;;;;;;;10.52;4.50;;;16.40;99.90;;;;;;4879838;29;20048;-72
2022/10/28 10:07:38;;;;;;;10.32;4.57;;;16.40;99.90;;;;;;4878607;29;20041;-72
2022/10/28 10:10:18;;;;;;;8.55;5.18;;;16.50;99.90;;;;;;4877758;29;20052;-73
2022/10/28 10:12:46;;;;;;;6.97;4.40;;;16.50;99.90;;;;;;4877364;29;20081;-72
2022/10/28 10:15:22;;;;;;;8.20;4.13;;;16.60;99.90;;;;;;4878348;29;20053;-72
2022/10/28 10:17:48;;;;;;;10.77;4.50;;;16.60;99.90;;;;;;4859940;29;20148;-74
2022/10/28 10:20:19;;;;;;;10.65;4.53;;;16.60;99.90;;;;;;4876162;29;20132;-73
2022/10/28 10:22:47;;;;;;;8.25;4.25;;;16.70;99.90;;;;;;4875959;29;20081;-73
2022/10/28 10:25:19;;;;;;;10.27;4.07;;;16.70;99.90;;;;;;4851970;29;20105;-73
2022/10/28 10:27:56;;;;;;;8.95;4.47;;;16.70;99.90;;;;;;4860253;29;20053;-73
2022/10/28 10:30:52;;;;;;;9.50;4.82;;;16.70;99.90;;;;;;4856423;29;20060;-72
2022/10/28 10:33:22;;;;;;;12.68;5.03;;;16.80;99.90;;;;;;4874666;29;20053;-72
2022/10/28 10:36:10;;;;;;;12.85;4.50;;;16.80;99.90;;;;;;4878914;29;20049;-72
2022/10/28 10:38:37;;;;;;;11.25;4.63;;;16.90;99.90;;;;;;4878264;29;20101;-72
2022/10/28 10:41:03;;;;;;;9.40;4.32;;;16.90;99.90;;;;;;4878757;29;20075;-72
2022/10/28 10:43:33;;;;;;;11.43;4.75;;;16.90;99.90;;;;;;4879875;29;20490;-72
2022/10/28 10:46:02;;;;;;;11.95;4.97;;;16.90;99.90;;;;;;4878901;29;20047;-73
2022/10/28 10:48:31;;;;;;;7.05;4.63;;;17.00;99.90;;;;;;4863430;29;20057;-72
2022/10/28 10:50:57;;;;;;;12.52;4.97;;;17.00;99.90;;;;;;4878426;29;20055;-73
2022/10/28 10:53:29;;;;;;;13.70;4.43;;;17.00;99.90;;;;;;4879188;29;20045;-72
2022/10/28 10:56:04;;;;;;;12.57;4.88;;;17.00;99.90;;;;;;4877916;29;20278;-73
2022/10/28 10:58:35;;;;;;;11.38;4.22;;;17.10;99.90;;;;;;4876945;29;20053;-73
2022/10/28 11:01:04;;;;;;;8.75;4.30;;;17.10;99.90;;;;;;4876179;29;20052;-73
2022/10/28 11:03:35;;;;;;;11.27;4.70;;;17.10;99.90;;;;;;4851406;29;20123;-72
2022/10/28 11:06:04;;;;;;;8.35;3.80;;;17.10;99.90;;;;;;4846279;29;20049;-73
2022/10/28 11:08:38;;;;;;;9.38;4.28;;;17.20;99.90;;;;;;4886213;29;20053;-72
2022/10/28 11:11:18;;;;;;;11.50;4.47;;;17.20;99.90;;;;;;4884292;29;20075;-73
2022/10/28 11:13:45;;;;;;;11.63;4.25;;;17.20;99.90;;;;;;4871630;29;20048;-72
2022/10/28 11:16:21;;;;;;;8.95;4.15;;;17.30;99.90;;;;;;4886389;29;20049;-73
2022/10/28 11:18:49;;;;;;;8.57;4.15;;;17.30;99.90;;;;;;4885172;29;20489;-73
2022/10/28 11:21:53;;;;;;;10.27;4.43;;;17.30;99.90;;;;;;4870366;29;20045;-73
2022/10/28 11:24:38;;;;;;;;;;;17.30;99.90;;;;;;4888204;29;20045;-73
2022/10/28 11:27:27;;;;;;;10.63;4.93;;;17.30;99.90;;;;;;4881188;29;20408;-72
2022/10/28 11:29:54;;;;;;;12.00;4.57;;;17.40;99.90;;;;;;4884458;29;20125;-72
2022/10/28 11:32:35;;;;;;;9.30;3.85;;;17.40;99.90;;;;;;4854169;29;20057;-73
2022/10/28 11:35:19;;;;;;;9.18;4.30;;;17.40;99.90;;;;;;4884950;29;20121;-72
2022/10/28 11:38:10;;;;;;;13.45;5.22;;;17.40;99.90;;;;;;4886917;29;20072;-72
2022/10/28 11:41:14;;;;;;;9.05;4.35;;;17.40;99.90;;;;;;4889263;29;20402;-72
2022/10/28 11:43:41;;;;;;;;;;;17.50;99.90;;;;;;4889019;29;20052;-72
2022/10/28 11:46:43;;;;;;;9.57;3.97;;;17.50;99.90;;;;;;4881999;29;19931;-73
2022/10/28 11:49:57;;;;;;;9.95;4.65;;;17.50;99.90;;;;;;4873443;29;20127;-73
2022/10/28 11:52:42;;;;;;;13.82;4.45;;;17.60;99.90;;;;;;4868568;29;20143;-72
2022/10/28 11:55:46;;;;;;;11.88;4.43;;;17.70;99.90;;;;;;4896890;29;20052;-72
2022/10/28 11:58:20;;;;;;;;;;;17.70;99.90;;;;;;4885609;29;20049;-73
2022/10/28 12:01:07;;;;;;;13.30;5.80;;;17.80;99.90;;;;;;4881398;29;19931;-73
2022/10/28 12:03:42;;;;;;;12.05;5.72;;;17.80;99.90;;;;;;4879610;29;20127;-72
2022/10/28 12:06:22;;;;;;;11.95;4.93;;;17.80;99.90;;;;;;4871020;29;20077;-72
2022/10/28 12:08:56;;;;;;;13.00;5.18;;;17.80;99.90;;;;;;4878724;29;20554;-72
2022/10/28 12:11:40;;;;;;;13.68;5.40;;;17.80;99.90;;;;;;4865469;29;20457;-73
2022/10/28 12:14:28;;;;;;;10.20;5.00;;;17.80;99.90;;;;;;4880891;29;20049;-73
2022/10/28 12:17:05;;;;;;;12.27;5.13;;;17.80;99.90;;;;;;4878554;29;20128;-73
2022/10/28 12:19:37;;;;;;;9.63;4.50;;;17.90;99.90;;;;;;4878872;29;20391;-73
2022/10/28 12:22:16;;;;;;;11.77;4.63;;;17.90;99.90;;;;;;4880685;29;20056;-73
2022/10/28 12:24:44;;;;;;;7.30;3.95;;;17.90;99.90;;;;;;4880897;29;20136;-73
2022/10/28 12:27:35;;;;;;;7.97;4.30;;;17.90;99.90;;;;;;4880593;29;20498;-73
2022/10/28 12:30:08;;;;;;;7.70;4.05;;;17.90;99.90;;;;;;4880075;29;20048;-72
2022/10/28 12:32:36;;;;;;;7.40;3.97;;;17.90;99.90;;;;;;4880048;29;20056;-72
2022/10/28 12:35:02;;;;;;;9.05;3.97;;;17.90;99.90;;;;;;4881692;29;20103;-73
2022/10/28 12:37:57;;;;;;;9.77;4.40;;;17.90;99.90;;;;;;4880813;29;20510;-73
2022/10/28 12:40:38;;;;;;;7.75;4.03;;;18.00;99.90;;;;;;4874100;29;20109;-73
2022/10/28 12:43:13;;;;;;;9.85;4.35;;;18.00;99.90;;;;;;4880382;29;20056;-73
2022/10/28 12:45:41;;;;;;;14.60;4.82;;;18.00;99.90;;;;;;4881611;29;20041;-72
2022/10/28 12:48:16;;;;;;;11.90;4.40;;;18.00;99.90;;;;;;4881172;29;20462;-73
2022/10/28 12:51:12;;;;;;;9.45;3.85;;;18.00;99.90;;;;;;4865057;29;20061;-73
2022/10/28 12:54:15;;;;;;;15.80;5.43;;;18.00;99.90;;;;;;4864987;29;20487;-73
2022/10/28 12:56:48;;;;;;;9.93;4.20;;;18.10;99.90;;;;;;4879893;29;20212;-72
2022/10/28 12:59:17;;;;;;;9.65;4.72;;;18.10;99.90;;;;;;4879758;29;20045;-72
2022/10/28 13:01:46;;;;;;;10.57;4.72;;;18.10;99.90;;;;;;4881175;29;20045;-73
2022/10/28 13:04:13;;;;;;;11.73;4.95;;;18.10;99.90;;;;;;4880072;29;20045;-72
2022/10/28 13:07:17;;;;;;;11.48;5.93;;;18.10;99.90;;;;;;4864583;29;20045;-72